Time,TemperatureF,DewpointF,PressureIn,WindDirection,WindDirectionDegrees,WindSpeedMPH,WindSpeedGustMPH,Humidity,HourlyPrecipIn,Conditions,Clouds,dailyrainin,SoftwareType,DateUTC
2013-09-12 00:01:00,71.8,69.0,30.11,SW,227,0.0,5.0,90,0.00,,,0.00,weatherlink.com 1.10,2013-09-12 05:01:00,
2013-09-12 00:06:00,71.7,68.6,30.10,SW,227,0.0,6.0,90,0.00,,,0.00,Wunderground v.1.15,2013-09-12 05:06:00,
2013-09-12 00:12:00,71.7,68.6,30.10,SW,227,0.0,6.0,90,0.00,,,0.00,Wunderground v.1.15,2013-09-12 05:12:00,
2013-09-12 00:18:00,71.7,68.6,30.10,SW,223,0.0,6.0,90,0.00,,,0.00,Wunderground v.1.15,2013-09-12 05:18:00,
2013-09-12 00:24:00,71.6,68.5,30.10,SW,224,0.0,6.0,90,0.00,,,0.00,Wunderground v.1.15,2013-09-12 05:24:00,
2013-09-12 00:29:00,71.6,68.5,30.10,SW,224,0.0,6.0,90,0.00,,,0.00,Wunderground v.1.15,2013-09-12 05:29:00,
2013-09-12 00:35:00,71.6,68.5,30.10,SW,224,0.0,6.0,90,0.00,,,0.00,Wunderground v.1.15,2013-09-12 05:35:00,
2013-09-12 00:41:00,71.5,68.4,30.10,SW,224,0.0,6.0,90,0.00,,,0.00,Wunderground v.1.15,2013-09-12 05:41:00,
2013-09-12 00:49:00,71.4,68.3,30.10,SW,224,0.0,6.0,90,0.00,,,0.00,Wunderground v.1.15,2013-09-12 05:49:00,
2013-09-12 00:58:00,71.3,68.2,30.10,SW,223,0.0,6.0,90,0.00,,,0.00,Wunderground v.1.15,2013-09-12 05:58:00,
2013-09-12 01:05:00,71.2,68.1,30.10,SW,224,0.0,6.0,90,0.00,,,0.00,Wunderground v.1.15,2013-09-12 06:05:00,
2013-09-12 01:11:00,71.2,68.1,30.10,SW,224,0.0,6.0,90,0.00,,,0.00,Wunderground v.1.15,2013-09-12 06:11:00,
2013-09-12 01:16:00,71.0,68.0,30.10,SW,224,0.0,0.0,90,0.00,,,0.00,weatherlink.com 1.10,2013-09-12 06:16:00,
2013-09-12 01:22:00,70.9,67.8,30.10,SW,224,0.0,6.0,90,0.00,,,0.00,Wunderground v.1.15,2013-09-12 06:22:00,
2013-09-12 01:27:00,70.9,68.1,30.10,SW,224,0.0,6.0,91,0.00,,,0.00,Wunderground v.1.15,2013-09-12 06:27:00,
2013-09-12 01:35:00,70.8,68.0,30.10,SW,223,0.0,6.0,91,0.00,,,0.00,Wunderground v.1.15,2013-09-12 06:35:00,
2013-09-12 01:41:00,70.7,67.6,30.10,SW,224,0.0,6.0,90,0.00,,,0.00,Wunderground v.1.15,2013-09-12 06:41:00,
2013-09-12 01:47:00,70.6,68.0,30.11,SW,223,0.0,0.0,91,0.00,,,0.00,weatherlink.com 1.10,2013-09-12 06:47:00,
2013-09-12 01:52:00,70.6,67.8,30.10,SW,223,0.0,6.0,91,0.00,,,0.00,Wunderground v.1.15,2013-09-12 06:52:00,
2013-09-12 01:58:00,70.5,67.7,30.11,SW,224,0.0,6.0,91,0.00,,,0.00,Wunderground v.1.15,2013-09-12 06:58:00,
2013-09-12 02:06:00,70.4,67.6,30.11,SW,224,0.0,6.0,91,0.00,,,0.00,Wunderground v.1.15,2013-09-12 07:06:00,
2013-09-12 02:11:00,70.4,68.0,30.11,SW,223,0.0,6.0,92,0.00,,,0.00,Wunderground v.1.15,2013-09-12 07:11:00,
2013-09-12 02:17:00,70.3,67.9,30.11,SW,223,0.0,6.0,92,0.00,,,0.00,Wunderground v.1.15,2013-09-12 07:17:00,
2013-09-12 02:22:00,70.3,67.9,30.11,SW,223,0.0,6.0,92,0.00,,,0.00,Wunderground v.1.15,2013-09-12 07:22:00,
2013-09-12 02:27:00,70.3,67.9,30.11,SW,224,0.0,6.0,92,0.00,,,0.00,Wunderground v.1.15,2013-09-12 07:27:00,
2013-09-12 02:32:00,70.3,68.0,30.11,SW,224,0.0,2.0,92,0.00,,,0.00,weatherlink.com 1.10,2013-09-12 07:32:00,
2013-09-12 02:40:00,70.3,67.9,30.11,SW,224,0.0,6.0,92,0.00,,,0.00,Wunderground v.1.15,2013-09-12 07:40:00,
2013-09-12 02:45:00,70.3,67.9,30.12,SW,224,0.0,6.0,92,0.00,,,0.00,Wunderground v.1.15,2013-09-12 07:45:00,
2013-09-12 02:52:00,70.3,67.9,30.12,SW,224,0.0,6.0,92,0.00,,,0.00,Wunderground v.1.15,2013-09-12 07:52:00,
2013-09-12 02:59:00,70.3,67.9,30.12,SW,224,0.0,6.0,92,0.00,,,0.00,Wunderground v.1.15,2013-09-12 07:59:00,
2013-09-12 03:04:00,70.3,67.9,30.12,SW,224,0.0,6.0,92,0.00,,,0.00,Wunderground v.1.15,2013-09-12 08:04:00,
2013-09-12 03:10:00,70.3,67.9,30.12,SW,224,0.0,6.0,92,0.00,,,0.00,Wunderground v.1.15,2013-09-12 08:10:00,
2013-09-12 03:16:00,70.3,67.9,30.12,SW,223,1.0,6.0,92,0.00,,,0.00,Wunderground v.1.15,2013-09-12 08:16:00,
2013-09-12 03:21:00,70.3,67.9,30.12,SW,224,1.0,6.0,92,0.00,,,0.00,Wunderground v.1.15,2013-09-12 08:21:00,
2013-09-12 03:26:00,70.3,67.9,30.12,SW,224,0.0,6.0,92,0.00,,,0.00,Wunderground v.1.15,2013-09-12 08:26:00,
2013-09-12 03:32:00,70.2,67.8,30.11,SW,224,0.0,6.0,92,0.00,,,0.00,Wunderground v.1.15,2013-09-12 08:32:00,
2013-09-12 03:38:00,70.2,67.8,30.11,SW,223,0.0,6.0,92,0.00,,,0.00,Wunderground v.1.15,2013-09-12 08:38:00,
2013-09-12 03:43:00,70.1,67.7,30.11,SW,224,0.0,6.0,92,0.00,,,0.00,Wunderground v.1.15,2013-09-12 08:43:00,
2013-09-12 03:49:00,70.1,67.7,30.11,SW,224,0.0,6.0,92,0.00,,,0.00,Wunderground v.1.15,2013-09-12 08:49:00,
2013-09-12 03:54:00,70.0,67.6,30.11,SW,224,0.0,6.0,92,0.00,,,0.00,Wunderground v.1.15,2013-09-12 08:54:00,
2013-09-12 04:00:00,70.0,67.6,30.11,SW,224,0.0,6.0,92,0.00,,,0.00,Wunderground v.1.15,2013-09-12 09:00:00,
2013-09-12 04:05:00,70.0,68.0,30.11,SW,224,0.0,0.0,92,0.00,,,0.00,weatherlink.com 1.10,2013-09-12 09:05:00,
2013-09-12 04:12:00,69.9,67.5,30.10,SW,224,0.0,6.0,92,0.00,,,0.00,Wunderground v.1.15,2013-09-12 09:12:00,
2013-09-12 04:19:00,69.8,67.4,30.10,SW,224,0.0,6.0,92,0.00,,,0.00,Wunderground v.1.15,2013-09-12 09:19:00,
2013-09-12 04:24:00,69.8,67.4,30.10,SW,224,0.0,6.0,92,0.00,,,0.00,Wunderground v.1.15,2013-09-12 09:24:00,
2013-09-12 04:29:00,69.7,67.3,30.10,SW,224,0.0,6.0,92,0.00,,,0.00,Wunderground v.1.15,2013-09-12 09:29:00,
2013-09-12 04:35:00,69.6,67.0,30.10,SW,224,0.0,0.0,92,0.00,,,0.00,weatherlink.com 1.10,2013-09-12 09:35:00,
2013-09-12 04:40:00,69.4,67.0,30.10,SW,224,0.0,6.0,92,0.00,,,0.00,Wunderground v.1.15,2013-09-12 09:40:00,
2013-09-12 04:47:00,69.3,66.9,30.10,SW,223,0.0,6.0,92,0.00,,,0.00,Wunderground v.1.15,2013-09-12 09:47:00,
2013-09-12 04:54:00,69.2,66.8,30.10,SW,224,0.0,6.0,92,0.00,,,0.00,Wunderground v.1.15,2013-09-12 09:54:00,
2013-09-12 04:59:00,69.1,66.7,30.10,SW,224,0.0,6.0,92,0.00,,,0.00,Wunderground v.1.15,2013-09-12 09:59:00,
2013-09-12 05:04:00,68.9,66.5,30.10,SW,223,0.0,6.0,92,0.00,,,0.00,Wunderground v.1.15,2013-09-12 10:04:00,
2013-09-12 05:10:00,68.8,66.4,30.11,SW,224,0.0,6.0,92,0.00,,,0.00,Wunderground v.1.15,2013-09-12 10:10:00,
2013-09-12 05:16:00,68.6,66.2,30.12,SW,224,0.0,6.0,92,0.00,,,0.00,Wunderground v.1.15,2013-09-12 10:16:00,
2013-09-12 05:22:00,68.7,66.6,30.12,NW,323,0.0,6.0,93,0.00,,,0.00,Wunderground v.1.15,2013-09-12 10:22:00,
2013-09-12 05:28:00,68.8,66.7,30.12,NW,323,0.0,6.0,93,0.00,,,0.00,Wunderground v.1.15,2013-09-12 10:28:00,
2013-09-12 05:34:00,68.7,66.6,30.12,NW,323,0.0,6.0,93,0.00,,,0.00,Wunderground v.1.15,2013-09-12 10:34:00,
2013-09-12 05:39:00,68.7,66.6,30.12,NW,323,0.0,6.0,93,0.00,,,0.00,Wunderground v.1.15,2013-09-12 10:39:00,
2013-09-12 05:46:00,68.6,66.2,30.12,NW,323,0.0,6.0,92,0.00,,,0.00,Wunderground v.1.15,2013-09-12 10:46:00,
2013-09-12 05:51:00,68.6,66.2,30.12,NW,323,0.0,6.0,92,0.00,,,0.00,Wunderground v.1.15,2013-09-12 10:51:00,
2013-09-12 05:57:00,68.5,66.1,30.12,NW,323,0.0,6.0,92,0.00,,,0.00,Wunderground v.1.15,2013-09-12 10:57:00,
2013-09-12 06:02:00,68.4,66.0,30.12,NW,323,0.0,6.0,92,0.00,,,0.00,Wunderground v.1.15,2013-09-12 11:02:00,
2013-09-12 06:08:00,68.3,65.9,30.12,NW,323,0.0,6.0,92,0.00,,,0.00,Wunderground v.1.15,2013-09-12 11:08:00,
2013-09-12 06:15:00,68.2,65.8,30.12,NW,323,0.0,6.0,92,0.00,,,0.00,Wunderground v.1.15,2013-09-12 11:15:00,
2013-09-12 06:21:00,68.2,65.8,30.12,NW,323,0.0,6.0,92,0.00,,,0.00,Wunderground v.1.15,2013-09-12 11:21:00,
2013-09-12 06:27:00,68.1,65.4,30.12,NW,323,0.0,6.0,91,0.00,,,0.00,Wunderground v.1.15,2013-09-12 11:27:00,
2013-09-12 06:33:00,67.9,65.2,30.12,NW,323,0.0,6.0,91,0.00,,,0.00,Wunderground v.1.15,2013-09-12 11:33:00,
2013-09-12 06:39:00,67.8,65.1,30.13,NW,323,0.0,6.0,91,0.00,,,0.00,Wunderground v.1.15,2013-09-12 11:39:00,
2013-09-12 06:44:00,67.7,65.3,30.12,NW,323,0.0,6.0,92,0.00,,,0.00,Wunderground v.1.15,2013-09-12 11:44:00,
2013-09-12 06:49:00,67.6,65.2,30.12,NW,323,0.0,6.0,92,0.00,,,0.00,Wunderground v.1.15,2013-09-12 11:49:00,
2013-09-12 06:55:00,67.5,65.1,30.13,NW,323,0.0,6.0,92,0.00,,,0.00,Wunderground v.1.15,2013-09-12 11:55:00,
2013-09-12 07:05:00,67.2,64.8,30.13,NW,323,0.0,6.0,92,0.00,,,0.00,Wunderground v.1.15,2013-09-12 12:05:00,
2013-09-12 07:11:00,67.1,64.7,30.13,NW,323,0.0,6.0,92,0.00,,,0.00,Wunderground v.1.15,2013-09-12 12:11:00,
2013-09-12 07:19:00,66.9,64.5,30.13,NNE,18,0.0,6.0,92,0.00,,,0.00,Wunderground v.1.15,2013-09-12 12:19:00,
2013-09-12 07:24:00,66.8,64.4,30.13,NNE,13,1.0,6.0,92,0.00,,,0.00,Wunderground v.1.15,2013-09-12 12:24:00,
2013-09-12 07:31:00,66.7,64.0,30.13,NNE,13,1.0,6.0,91,0.00,,,0.00,Wunderground v.1.15,2013-09-12 12:31:00,
2013-09-12 07:37:00,66.7,64.0,30.14,NNE,13,0.0,6.0,91,0.00,,,0.00,Wunderground v.1.15,2013-09-12 12:37:00,
2013-09-12 07:43:00,66.7,63.7,30.14,NNE,13,0.0,6.0,90,0.00,,,0.00,Wunderground v.1.15,2013-09-12 12:43:00,
2013-09-12 07:48:00,66.7,63.7,30.14,NNE,13,1.0,6.0,90,0.00,,,0.00,Wunderground v.1.15,2013-09-12 12:48:00,
2013-09-12 07:54:00,66.7,63.0,30.14,North,2,2.0,6.0,87,0.00,,,0.00,weatherlink.com 1.10,2013-09-12 12:54:00,
2013-09-12 07:59:00,67.1,62.1,30.14,North,350,2.0,2.0,84,0.00,,,0.00,Wunderground v.1.15,2013-09-12 12:59:00,
2013-09-12 08:05:00,67.6,61.6,30.15,NE,39,2.0,6.0,81,0.00,,,0.00,Wunderground v.1.15,2013-09-12 13:05:00,
2013-09-12 08:13:00,68.1,61.3,30.15,NE,41,3.0,6.0,79,0.00,,,0.00,Wunderground v.1.15,2013-09-12 13:13:00,
2013-09-12 08:19:00,68.4,61.3,30.15,ENE,70,3.0,3.0,78,0.00,,,0.00,Wunderground v.1.15,2013-09-12 13:19:00,
2013-09-12 08:26:00,68.7,60.5,30.15,North,360,2.0,6.0,75,0.00,,,0.00,Wunderground v.1.15,2013-09-12 13:26:00,
2013-09-12 08:33:00,68.9,59.9,30.15,North,359,2.0,6.0,73,0.00,,,0.00,Wunderground v.1.15,2013-09-12 13:33:00,
2013-09-12 08:39:00,69.2,59.4,30.15,NE,35,3.0,3.0,71,0.00,,,0.00,Wunderground v.1.15,2013-09-12 13:39:00,
2013-09-12 08:44:00,69.5,59.7,30.15,North,7,2.0,6.0,71,0.00,,,0.00,Wunderground v.1.15,2013-09-12 13:44:00,
2013-09-12 08:50:00,69.8,58.3,30.16,North,2,2.0,6.0,67,0.00,,,0.00,Wunderground v.1.15,2013-09-12 13:50:00,
2013-09-12 08:56:00,69.8,58.3,30.16,NNE,18,3.0,6.0,67,0.00,,,0.00,Wunderground v.1.15,2013-09-12 13:56:00,
2013-09-12 09:02:00,69.9,58.9,30.16,NNE,13,3.0,6.0,68,0.00,,,0.00,Wunderground v.1.15,2013-09-12 14:02:00,
2013-09-12 09:08:00,70.0,57.3,30.16,North,351,3.0,7.0,64,0.00,,,0.00,Wunderground v.1.15,2013-09-12 14:08:00,
2013-09-12 09:15:00,70.1,56.0,30.17,North,350,4.0,9.0,61,0.00,,,0.00,Wunderground v.1.15,2013-09-12 14:15:00,
2013-09-12 09:23:00,70.5,56.0,30.17,East,84,0.0,9.0,61,0.00,,,0.00,weatherlink.com 1.10,2013-09-12 14:23:00,
2013-09-12 09:29:00,70.9,56.3,30.17,NE,53,1.0,6.0,60,0.00,,,0.00,Wunderground v.1.15,2013-09-12 14:29:00,
2013-09-12 09:35:00,71.2,55.7,30.17,NNE,12,2.0,6.0,58,0.00,,,0.00,Wunderground v.1.15,2013-09-12 14:35:00,
2013-09-12 09:40:00,71.4,56.3,30.17,East,89,2.0,6.0,59,0.00,,,0.00,Wunderground v.1.15,2013-09-12 14:40:00,
2013-09-12 09:45:00,71.7,55.2,30.18,NE,51,2.0,8.0,56,0.00,,,0.00,Wunderground v.1.15,2013-09-12 14:45:00,
2013-09-12 09:53:00,71.9,55.0,30.18,NNW,347,1.0,10.0,56,0.00,,,0.00,weatherlink.com 1.10,2013-09-12 14:53:00,
2013-09-12 10:01:00,72.1,54.5,30.18,NE,56,3.0,6.0,54,0.00,,,0.00,Wunderground v.1.15,2013-09-12 15:01:00,
2013-09-12 10:07:00,72.2,54.0,30.18,ESE,102,1.0,11.0,54,0.00,,,0.00,weatherlink.com 1.10,2013-09-12 15:07:00,
2013-09-12 10:13:00,72.7,55.6,30.18,North,356,2.0,6.0,55,0.00,,,0.00,Wunderground v.1.15,2013-09-12 15:13:00,
2013-09-12 10:19:00,73.1,56.0,30.18,East,79,1.0,7.0,55,0.00,,,0.00,Wunderground v.1.15,2013-09-12 15:19:00,
2013-09-12 10:24:00,73.4,54.0,30.19,ENE,66,2.0,11.0,51,0.00,,,0.00,weatherlink.com 1.10,2013-09-12 15:24:00,
2013-09-12 10:30:00,73.5,54.3,30.19,North,11,3.0,6.0,51,0.00,,,0.00,Wunderground v.1.15,2013-09-12 15:30:00,
2013-09-12 10:35:00,73.8,54.5,30.19,North,3,2.0,6.0,51,0.00,,,0.00,Wunderground v.1.15,2013-09-12 15:35:00,
2013-09-12 10:41:00,73.9,54.6,30.19,East,91,3.0,6.0,51,0.00,,,0.00,Wunderground v.1.15,2013-09-12 15:41:00,
2013-09-12 10:46:00,74.0,53.1,30.19,NNE,31,3.0,6.0,48,0.00,,,0.00,Wunderground v.1.15,2013-09-12 15:46:00,
2013-09-12 10:52:00,74.0,53.1,30.19,ENE,64,4.0,6.0,48,0.00,,,0.00,Wunderground v.1.15,2013-09-12 15:52:00,
2013-09-12 10:57:00,74.3,54.5,30.19,ENE,68,3.0,6.0,50,0.00,,,0.00,Wunderground v.1.15,2013-09-12 15:57:00,
2013-09-12 11:03:00,74.6,53.0,30.19,NE,42,2.0,6.0,47,0.00,,,0.00,Wunderground v.1.15,2013-09-12 16:03:00,
2013-09-12 11:08:00,74.8,53.2,30.19,NNE,24,2.0,6.0,47,0.00,,,0.00,Wunderground v.1.15,2013-09-12 16:08:00,
2013-09-12 11:13:00,74.9,53.3,30.19,NE,47,2.0,8.0,47,0.00,,,0.00,Wunderground v.1.15,2013-09-12 16:13:00,
2013-09-12 11:19:00,75.0,54.0,30.19,NNE,31,3.0,3.0,48,0.00,,,0.00,Wunderground v.1.15,2013-09-12 16:19:00,
2013-09-12 11:24:00,75.5,54.4,30.19,NNE,33,2.0,7.0,48,0.00,,,0.00,Wunderground v.1.15,2013-09-12 16:24:00,
2013-09-12 11:29:00,75.7,53.4,30.19,NNE,30,2.0,2.0,46,0.00,,,0.00,Wunderground v.1.15,2013-09-12 16:29:00,
2013-09-12 11:34:00,75.5,54.4,30.19,NNE,22,2.0,6.0,48,0.00,,,0.00,Wunderground v.1.15,2013-09-12 16:34:00,
2013-09-12 11:40:00,75.6,54.0,30.20,ENE,60,2.0,8.0,48,0.00,,,0.00,weatherlink.com 1.10,2013-09-12 16:40:00,
2013-09-12 11:46:00,75.6,53.9,30.19,North,6,2.0,6.0,47,0.00,,,0.00,Wunderground v.1.15,2013-09-12 16:46:00,
2013-09-12 11:52:00,75.9,54.8,30.19,ESE,112,2.0,6.0,48,0.00,,,0.00,Wunderground v.1.15,2013-09-12 16:52:00,
2013-09-12 11:59:00,76.4,55.3,30.19,NNE,18,1.0,6.0,48,0.00,,,0.00,Wunderground v.1.15,2013-09-12 16:59:00,
2013-09-12 12:05:00,76.4,55.3,30.19,NNE,16,1.0,6.0,48,0.00,,,0.00,Wunderground v.1.15,2013-09-12 17:05:00,
2013-09-12 12:12:00,76.6,54.3,30.19,NNE,16,2.0,6.0,46,0.00,,,0.00,Wunderground v.1.15,2013-09-12 17:12:00,
2013-09-12 12:18:00,76.7,53.8,30.20,North,351,2.0,6.0,45,0.00,,,0.00,Wunderground v.1.15,2013-09-12 17:18:00,
2013-09-12 12:23:00,76.9,55.1,30.20,NE,46,2.0,6.0,47,0.00,,,0.00,Wunderground v.1.15,2013-09-12 17:23:00,
2013-09-12 12:28:00,77.1,55.3,30.20,East,90,1.0,9.0,47,0.00,,,0.00,Wunderground v.1.15,2013-09-12 17:28:00,
2013-09-12 12:34:00,77.3,54.3,30.20,NNW,335,2.0,6.0,45,0.00,,,0.00,Wunderground v.1.15,2013-09-12 17:34:00,
2013-09-12 12:39:00,77.3,53.7,30.19,NNE,33,2.0,2.0,44,0.00,,,0.00,Wunderground v.1.15,2013-09-12 17:39:00,
2013-09-12 12:44:00,77.3,54.3,30.19,North,351,2.0,6.0,45,0.00,,,0.00,Wunderground v.1.15,2013-09-12 17:44:00,
2013-09-12 12:49:00,77.6,54.6,30.19,ENE,69,1.0,1.0,45,0.00,,,0.00,Wunderground v.1.15,2013-09-12 17:49:00,
2013-09-12 12:55:00,77.8,53.0,30.19,NNE,12,6.0,9.0,42,0.00,,,0.00,weatherlink.com 1.10,2013-09-12 17:55:00,
2013-09-12 13:00:00,77.8,53.5,30.19,North,7,3.0,6.0,43,0.00,,,0.00,Wunderground v.1.15,2013-09-12 18:00:00,
2013-09-12 13:06:00,77.9,52.3,30.19,NNE,15,2.0,6.0,41,0.00,,,0.00,Wunderground v.1.15,2013-09-12 18:06:00,
2013-09-12 13:11:00,77.8,53.5,30.19,NE,54,2.0,6.0,43,0.00,,,0.00,Wunderground v.1.15,2013-09-12 18:11:00,
2013-09-12 13:16:00,77.7,52.8,30.18,North,360,3.0,6.0,42,0.00,,,0.00,Wunderground v.1.15,2013-09-12 18:16:00,
2013-09-12 13:21:00,77.8,53.5,30.18,NE,54,2.0,6.0,43,0.00,,,0.00,Wunderground v.1.15,2013-09-12 18:21:00,
2013-09-12 13:26:00,77.6,54.0,30.18,NE,37,3.0,6.0,44,0.00,,,0.00,Wunderground v.1.15,2013-09-12 18:26:00,
2013-09-12 13:32:00,77.7,54.7,30.18,East,91,2.0,6.0,45,0.00,,,0.00,Wunderground v.1.15,2013-09-12 18:32:00,
2013-09-12 13:37:00,78.0,54.9,30.18,NNE,23,2.0,6.0,45,0.00,,,0.00,Wunderground v.1.15,2013-09-12 18:37:00,
2013-09-12 13:42:00,77.9,53.6,30.18,East,93,3.0,7.0,43,0.00,,,0.00,Wunderground v.1.15,2013-09-12 18:42:00,
2013-09-12 13:47:00,77.6,52.0,30.18,ENE,59,3.0,7.0,41,0.00,,,0.00,Wunderground v.1.15,2013-09-12 18:47:00,
2013-09-12 13:52:00,77.9,52.3,30.18,East,83,3.0,7.0,41,0.00,,,0.00,Wunderground v.1.15,2013-09-12 18:52:00,
2013-09-12 13:58:00,78.0,53.7,30.18,ENE,77,3.0,9.0,43,0.00,,,0.00,Wunderground v.1.15,2013-09-12 18:58:00,
2013-09-12 14:03:00,78.4,52.7,30.17,ENE,69,3.0,7.0,41,0.00,,,0.00,Wunderground v.1.15,2013-09-12 19:03:00,
2013-09-12 14:08:00,78.6,52.9,30.17,North,11,3.0,7.0,41,0.00,,,0.00,Wunderground v.1.15,2013-09-12 19:08:00,
2013-09-12 14:13:00,78.8,53.1,30.17,NNE,15,3.0,12.0,41,0.00,,,0.00,Wunderground v.1.15,2013-09-12 19:13:00,
2013-09-12 14:18:00,78.8,51.0,30.17,NNE,28,4.0,12.0,38,0.00,,,0.00,Wunderground v.1.15,2013-09-12 19:18:00,
2013-09-12 14:23:00,78.8,53.1,30.17,North,356,3.0,6.0,41,0.00,,,0.00,Wunderground v.1.15,2013-09-12 19:23:00,
2013-09-12 14:29:00,78.7,53.0,30.17,NNE,16,2.0,2.0,41,0.00,,,0.00,Wunderground v.1.15,2013-09-12 19:29:00,
2013-09-12 14:34:00,78.8,51.0,30.17,North,11,2.0,8.0,38,0.00,,,0.00,Wunderground v.1.15,2013-09-12 19:34:00,
2013-09-12 14:39:00,78.6,51.6,30.17,NNE,14,3.0,3.0,39,0.00,,,0.00,Wunderground v.1.15,2013-09-12 19:39:00,
2013-09-12 14:45:00,78.7,52.3,30.16,ENE,75,1.0,6.0,40,0.00,,,0.00,Wunderground v.1.15,2013-09-12 19:45:00,
2013-09-12 14:51:00,78.7,51.7,30.17,North,8,2.0,6.0,39,0.00,,,0.00,Wunderground v.1.15,2013-09-12 19:51:00,
2013-09-12 14:56:00,78.7,53.0,30.16,NNE,31,2.0,6.0,41,0.00,,,0.00,Wunderground v.1.15,2013-09-12 19:56:00,
2013-09-12 15:02:00,79.0,53.3,30.16,East,93,2.0,7.0,41,0.00,,,0.00,Wunderground v.1.15,2013-09-12 20:02:00,
2013-09-12 15:07:00,78.8,51.7,30.15,NNW,330,2.0,7.0,39,0.00,,,0.00,Wunderground v.1.15,2013-09-12 20:07:00,
2013-09-12 15:13:00,78.8,52.4,30.16,North,360,1.0,7.0,40,0.00,,,0.00,Wunderground v.1.15,2013-09-12 20:13:00,
2013-09-12 15:18:00,78.8,53.1,30.15,East,93,2.0,7.0,41,0.00,,,0.00,Wunderground v.1.15,2013-09-12 20:18:00,
2013-09-12 15:23:00,78.9,52.5,30.15,ENE,67,3.0,6.0,40,0.00,,,0.00,Wunderground v.1.15,2013-09-12 20:23:00,
2013-09-12 15:29:00,79.0,52.6,30.15,NNE,13,2.0,6.0,40,0.00,,,0.00,Wunderground v.1.15,2013-09-12 20:29:00,
2013-09-12 15:34:00,78.8,52.4,30.15,North,4,3.0,6.0,40,0.00,,,0.00,Wunderground v.1.15,2013-09-12 20:34:00,
2013-09-12 15:39:00,78.8,52.4,30.15,NE,45,2.0,6.0,40,0.00,,,0.00,Wunderground v.1.15,2013-09-12 20:39:00,
2013-09-12 15:45:00,79.1,53.4,30.15,North,354,2.0,6.0,41,0.00,,,0.00,Wunderground v.1.15,2013-09-12 20:45:00,
2013-09-12 15:50:00,79.3,53.6,30.15,North,357,3.0,8.0,41,0.00,,,0.00,Wunderground v.1.15,2013-09-12 20:50:00,
2013-09-12 15:56:00,79.2,52.8,30.14,ENE,72,3.0,8.0,40,0.00,,,0.00,Wunderground v.1.15,2013-09-12 20:56:00,
2013-09-12 16:01:00,79.1,52.7,30.14,North,4,2.0,6.0,40,0.00,,,0.00,Wunderground v.1.15,2013-09-12 21:01:00,
2013-09-12 16:07:00,79.3,51.5,30.14,North,4,1.0,6.0,38,0.00,,,0.00,Wunderground v.1.15,2013-09-12 21:07:00,
2013-09-12 16:12:00,79.3,53.6,30.14,NNE,16,1.0,6.0,41,0.00,,,0.00,Wunderground v.1.15,2013-09-12 21:12:00,
2013-09-12 16:18:00,79.3,50.8,30.14,North,7,3.0,8.0,37,0.00,,,0.00,Wunderground v.1.15,2013-09-12 21:18:00,
2013-09-12 16:23:00,79.3,50.8,30.14,NNW,341,3.0,8.0,37,0.00,,,0.00,Wunderground v.1.15,2013-09-12 21:23:00,
2013-09-12 16:29:00,79.6,54.0,30.14,NE,37,5.0,8.0,41,0.00,,,0.00,weatherlink.com 1.10,2013-09-12 21:29:00,
2013-09-12 16:34:00,79.6,51.8,30.14,NE,47,2.0,6.0,38,0.00,,,0.00,Wunderground v.1.15,2013-09-12 21:34:00,
2013-09-12 16:39:00,79.6,50.3,30.13,ENE,64,2.0,9.0,36,0.00,,,0.00,Wunderground v.1.15,2013-09-12 21:39:00,
2013-09-12 16:45:00,79.3,50.8,30.13,NNE,19,3.0,9.0,37,0.00,,,0.00,Wunderground v.1.15,2013-09-12 21:45:00,
2013-09-12 16:50:00,79.2,50.7,30.13,NNE,23,3.0,6.0,37,0.00,,,0.00,Wunderground v.1.15,2013-09-12 21:50:00,
2013-09-12 16:56:00,79.1,51.3,30.13,ENE,59,3.0,6.0,38,0.00,,,0.00,Wunderground v.1.15,2013-09-12 21:56:00,
2013-09-12 17:01:00,79.2,49.9,30.13,North,2,2.0,5.0,36,0.00,,,0.00,Wunderground v.1.15,2013-09-12 22:01:00,
2013-09-12 17:07:00,79.3,50.8,30.13,NNE,20,2.0,6.0,37,0.00,,,0.00,Wunderground v.1.15,2013-09-12 22:07:00,
2013-09-12 17:12:00,79.3,52.2,30.13,North,11,1.0,6.0,39,0.00,,,0.00,Wunderground v.1.15,2013-09-12 22:12:00,
2013-09-12 17:18:00,79.3,50.8,30.13,NE,37,2.0,6.0,37,0.00,,,0.00,Wunderground v.1.15,2013-09-12 22:18:00,
2013-09-12 17:23:00,79.2,50.7,30.13,NNE,26,2.0,6.0,37,0.00,,,0.00,Wunderground v.1.15,2013-09-12 22:23:00,
2013-09-12 17:29:00,79.2,52.0,30.13,North,6,0.0,6.0,39,0.00,,,0.00,weatherlink.com 1.10,2013-09-12 22:29:00,
2013-09-12 17:34:00,79.2,50.7,30.13,NNW,345,2.0,7.0,37,0.00,,,0.00,Wunderground v.1.15,2013-09-12 22:34:00,
2013-09-12 17:40:00,79.0,51.2,30.13,North,4,2.0,6.0,38,0.00,,,0.00,Wunderground v.1.15,2013-09-12 22:40:00,
2013-09-12 17:45:00,78.6,50.9,30.13,NNE,27,2.0,6.0,38,0.00,,,0.00,Wunderground v.1.15,2013-09-12 22:45:00,
2013-09-12 17:50:00,78.0,49.6,30.13,North,352,2.0,6.0,37,0.00,,,0.00,Wunderground v.1.15,2013-09-12 22:50:00,
2013-09-12 17:56:00,77.9,50.2,30.13,NNE,20,3.0,6.0,38,0.00,,,0.00,Wunderground v.1.15,2013-09-12 22:56:00,
2013-09-12 18:02:00,77.9,50.9,30.14,North,10,2.0,6.0,39,0.00,,,0.00,Wunderground v.1.15,2013-09-12 23:02:00,
2013-09-12 18:07:00,78.0,49.6,30.14,North,6,2.0,6.0,37,0.00,,,0.00,Wunderground v.1.15,2013-09-12 23:07:00,
2013-09-12 18:13:00,78.0,50.3,30.14,NNE,30,2.0,6.0,38,0.00,,,0.00,Wunderground v.1.15,2013-09-12 23:13:00,
2013-09-12 18:18:00,77.9,50.9,30.14,NNE,12,2.0,6.0,39,0.00,,,0.00,Wunderground v.1.15,2013-09-12 23:18:00,
2013-09-12 18:24:00,77.7,49.3,30.14,NE,48,2.0,10.0,37,0.00,,,0.00,Wunderground v.1.15,2013-09-12 23:24:00,
2013-09-12 18:29:00,77.3,49.0,30.14,North,5,3.0,6.0,37,0.00,,,0.00,Wunderground v.1.15,2013-09-12 23:29:00,
2013-09-12 18:35:00,77.0,50.1,30.14,NNE,33,3.0,6.0,39,0.00,,,0.00,Wunderground v.1.15,2013-09-12 23:35:00,
2013-09-12 18:40:00,76.7,49.2,30.14,NNW,339,3.0,6.0,38,0.00,,,0.00,Wunderground v.1.15,2013-09-12 23:40:00,
2013-09-12 18:46:00,76.2,49.0,30.14,North,11,1.0,11.0,39,0.00,,,0.00,weatherlink.com 1.10,2013-09-12 23:46:00,
2013-09-12 18:51:00,76.0,49.9,30.14,ENE,72,2.0,6.0,40,0.00,,,0.00,Wunderground v.1.15,2013-09-12 23:51:00,
2013-09-12 18:57:00,75.6,49.6,30.14,North,4,1.0,6.0,40,0.00,,,0.00,Wunderground v.1.15,2013-09-12 23:57:00,
2013-09-12 19:03:00,75.0,49.7,30.14,NNE,32,1.0,6.0,41,0.00,,,0.00,Wunderground v.1.15,2013-09-13 00:03:00,
2013-09-12 19:08:00,74.4,49.2,30.14,NE,35,1.0,6.0,41,0.00,,,0.00,Wunderground v.1.15,2013-09-13 00:08:00,
2013-09-12 19:13:00,73.9,49.4,30.14,NE,45,1.0,6.0,42,0.00,,,0.00,Wunderground v.1.15,2013-09-13 00:13:00,
2013-09-12 19:19:00,73.3,50.1,30.15,NNE,33,0.0,6.0,44,0.00,,,0.00,Wunderground v.1.15,2013-09-13 00:19:00,
2013-09-12 19:24:00,73.0,50.4,30.15,NNE,33,0.0,6.0,45,0.00,,,0.00,Wunderground v.1.15,2013-09-13 00:24:00,
2013-09-12 19:29:00,72.5,49.9,30.15,NNE,14,0.0,6.0,45,0.00,,,0.00,Wunderground v.1.15,2013-09-13 00:29:00,
2013-09-12 19:34:00,72.1,50.2,30.15,NE,37,0.0,6.0,46,0.00,,,0.00,Wunderground v.1.15,2013-09-13 00:34:00,
2013-09-12 19:40:00,71.6,50.9,30.15,North,11,0.0,6.0,48,0.00,,,0.00,Wunderground v.1.15,2013-09-13 00:40:00,
2013-09-12 19:45:00,71.1,51.5,30.15,NNE,31,0.0,6.0,50,0.00,,,0.00,Wunderground v.1.15,2013-09-13 00:45:00,
2013-09-12 19:50:00,70.6,51.1,30.15,NNE,31,0.0,6.0,50,0.00,,,0.00,Wunderground v.1.15,2013-09-13 00:50:00,
2013-09-12 19:56:00,70.0,51.6,30.15,NNE,31,0.0,6.0,52,0.00,,,0.00,Wunderground v.1.15,2013-09-13 00:56:00,
2013-09-12 20:01:00,69.4,51.5,30.15,NNE,30,0.0,6.0,53,0.00,,,0.00,Wunderground v.1.15,2013-09-13 01:01:00,
2013-09-12 20:06:00,69.0,51.7,30.15,NNE,30,0.0,6.0,54,0.00,,,0.00,Wunderground v.1.15,2013-09-13 01:06:00,
2013-09-12 20:12:00,68.5,52.2,30.16,NNE,30,0.0,6.0,56,0.00,,,0.00,Wunderground v.1.15,2013-09-13 01:12:00,
2013-09-12 20:18:00,67.9,52.1,30.16,NNE,30,0.0,6.0,57,0.00,,,0.00,Wunderground v.1.15,2013-09-13 01:18:00,
2013-09-12 20:23:00,67.3,53.8,30.16,NNE,30,0.0,6.0,62,0.00,,,0.00,Wunderground v.1.15,2013-09-13 01:23:00,
2013-09-12 20:29:00,66.5,53.9,30.16,NNE,30,0.0,6.0,64,0.00,,,0.00,Wunderground v.1.15,2013-09-13 01:29:00,
2013-09-12 20:34:00,65.9,53.4,30.16,NNE,30,0.0,6.0,64,0.00,,,0.00,Wunderground v.1.15,2013-09-13 01:34:00,
2013-09-12 20:39:00,65.4,52.9,30.16,NNE,30,0.0,6.0,64,0.00,,,0.00,Wunderground v.1.15,2013-09-13 01:39:00,
2013-09-12 20:44:00,64.9,53.7,30.17,NNE,30,0.0,6.0,67,0.00,,,0.00,Wunderground v.1.15,2013-09-13 01:44:00,
2013-09-12 20:49:00,64.5,55.0,30.16,NNE,30,0.0,0.0,70,0.00,,,0.00,weatherlink.com 1.10,2013-09-13 01:49:00,
2013-09-12 20:55:00,63.9,54.3,30.16,NNE,30,0.0,6.0,71,0.00,,,0.00,Wunderground v.1.15,2013-09-13 01:55:00,
2013-09-12 21:00:00,63.5,53.5,30.16,NNE,30,0.0,6.0,70,0.00,,,0.00,Wunderground v.1.15,2013-09-13 02:00:00,
2013-09-12 21:05:00,63.1,53.2,30.17,NNE,30,0.0,6.0,70,0.00,,,0.00,Wunderground v.1.15,2013-09-13 02:05:00,
2013-09-12 21:10:00,63.0,54.6,30.17,NNE,30,0.0,6.0,74,0.00,,,0.00,Wunderground v.1.15,2013-09-13 02:10:00,
2013-09-12 21:16:00,62.8,54.8,30.17,NNE,30,0.0,6.0,75,0.00,,,0.00,Wunderground v.1.15,2013-09-13 02:16:00,
2013-09-12 21:21:00,62.5,54.8,30.17,NNE,30,0.0,6.0,76,0.00,,,0.00,Wunderground v.1.15,2013-09-13 02:21:00,
2013-09-12 21:26:00,62.2,54.9,30.17,NNE,30,0.0,6.0,77,0.00,,,0.00,Wunderground v.1.15,2013-09-13 02:26:00,
2013-09-12 21:31:00,61.8,54.5,30.17,NNE,30,0.0,6.0,77,0.00,,,0.00,Wunderground v.1.15,2013-09-13 02:31:00,
2013-09-12 21:36:00,61.4,54.5,30.17,NNE,30,0.0,6.0,78,0.00,,,0.00,Wunderground v.1.15,2013-09-13 02:36:00,
2013-09-12 21:42:00,61.0,54.4,30.17,NNE,30,0.0,6.0,79,0.00,,,0.00,Wunderground v.1.15,2013-09-13 02:42:00,
2013-09-12 21:47:00,60.7,54.8,30.17,NNE,30,0.0,6.0,81,0.00,,,0.00,Wunderground v.1.15,2013-09-13 02:47:00,
2013-09-12 21:52:00,60.5,55.0,30.17,NNE,30,0.0,6.0,82,0.00,,,0.00,Wunderground v.1.15,2013-09-13 02:52:00,
2013-09-12 21:58:00,60.1,54.6,30.17,NNE,30,0.0,6.0,82,0.00,,,0.00,Wunderground v.1.15,2013-09-13 02:58:00,
2013-09-12 22:03:00,59.8,54.3,30.17,NNE,30,0.0,6.0,82,0.00,,,0.00,Wunderground v.1.15,2013-09-13 03:03:00,
2013-09-12 22:09:00,59.6,54.4,30.17,NNE,30,0.0,6.0,83,0.00,,,0.00,Wunderground v.1.15,2013-09-13 03:09:00,
2013-09-12 22:15:00,59.4,54.2,30.17,NNE,30,0.0,6.0,83,0.00,,,0.00,Wunderground v.1.15,2013-09-13 03:15:00,
2013-09-12 22:20:00,59.2,54.4,30.17,NNE,30,0.0,6.0,84,0.00,,,0.00,Wunderground v.1.15,2013-09-13 03:20:00,
2013-09-12 22:25:00,59.0,54.2,30.17,NNE,30,0.0,6.0,84,0.00,,,0.00,Wunderground v.1.15,2013-09-13 03:25:00,
2013-09-12 22:31:00,58.8,54.3,30.17,NNE,30,0.0,6.0,85,0.00,,,0.00,Wunderground v.1.15,2013-09-13 03:31:00,
2013-09-12 22:36:00,58.6,54.4,30.17,NNE,30,0.0,6.0,86,0.00,,,0.00,Wunderground v.1.15,2013-09-13 03:36:00,
2013-09-12 22:41:00,58.3,54.1,30.17,NNE,30,0.0,6.0,86,0.00,,,0.00,Wunderground v.1.15,2013-09-13 03:41:00,
2013-09-12 22:47:00,58.1,53.9,30.17,NNE,30,0.0,6.0,86,0.00,,,0.00,Wunderground v.1.15,2013-09-13 03:47:00,
2013-09-12 22:53:00,57.8,53.6,30.17,NNE,30,0.0,6.0,86,0.00,,,0.00,Wunderground v.1.15,2013-09-13 03:53:00,
2013-09-12 22:58:00,57.7,53.9,30.17,NNE,30,0.0,6.0,87,0.00,,,0.00,Wunderground v.1.15,2013-09-13 03:58:00,
2013-09-12 23:01:00,57.6,53.8,30.18,NNE,30,0.0,6.0,87,0.00,,,0.00,Wunderground v.1.15,2013-09-13 04:01:00,
2013-09-12 23:02:00,57.5,53.7,30.18,NNE,30,0.0,6.0,87,0.00,,,0.00,Wunderground v.1.15,2013-09-13 04:02:00,
2013-09-12 23:03:00,57.5,53.7,30.18,NNE,30,0.0,6.0,87,0.00,,,0.00,Wunderground v.1.15,2013-09-13 04:03:00,
2013-09-12 23:04:00,57.4,53.6,30.18,NNE,30,0.0,6.0,87,0.00,,,0.00,Wunderground v.1.15,2013-09-13 04:04:00,
2013-09-12 23:06:00,57.3,53.5,30.18,NNE,30,0.0,6.0,87,0.00,,,0.00,Wunderground v.1.15,2013-09-13 04:06:00,
2013-09-12 23:12:00,57.2,53.4,30.18,NNE,30,0.0,6.0,87,0.00,,,0.00,Wunderground v.1.15,2013-09-13 04:12:00,
2013-09-12 23:17:00,57.0,53.2,30.18,NNE,30,0.0,6.0,87,0.00,,,0.00,Wunderground v.1.15,2013-09-13 04:17:00,
2013-09-12 23:22:00,56.8,53.3,30.18,NNE,30,0.0,6.0,88,0.00,,,0.00,Wunderground v.1.15,2013-09-13 04:22:00,
2013-09-12 23:28:00,56.6,53.1,30.18,NNE,30,0.0,6.0,88,0.00,,,0.00,Wunderground v.1.15,2013-09-13 04:28:00,
2013-09-12 23:33:00,56.5,53.0,30.18,NNE,30,0.0,6.0,88,0.00,,,0.00,Wunderground v.1.15,2013-09-13 04:33:00,
2013-09-12 23:38:00,56.4,53.2,30.18,NNE,30,0.0,6.0,89,0.00,,,0.00,Wunderground v.1.15,2013-09-13 04:38:00,
2013-09-12 23:41:00,56.3,53.1,30.18,NNE,30,0.0,6.0,89,0.00,,,0.00,Wunderground v.1.15,2013-09-13 04:41:00,
2013-09-12 23:46:00,56.2,53.0,30.18,NNE,30,0.0,6.0,89,0.00,,,0.00,Wunderground v.1.15,2013-09-13 04:46:00,
2013-09-12 23:51:00,56.0,52.8,30.18,NNE,30,0.0,6.0,89,0.00,,,0.00,Wunderground v.1.15,2013-09-13 04:51:00,
2013-09-12 23:57:00,55.9,53.0,30.18,NNE,30,0.0,6.0,90,0.00,,,0.00,Wunderground v.1.15,2013-09-13 04:57:00,